sensor_id;sensor_type;location;lat;lon;timestamp;P1;durP1;ratioP1;P2;durP2;ratioP2
10731;SDS011;5417;42.686;23.244;2023-08-07T00:00:50;2.00;;;1.90;;
10731;SDS011;5417;42.686;23.244;2023-08-07T00:03:59;2.10;;;2.00;;
10731;SDS011;5417;42.686;23.244;2023-08-07T00:06:26;2.27;;;2.17;;
10731;SDS011;5417;42.686;23.244;2023-08-07T00:09:10;2.00;;;1.90;;
10731;SDS011;5417;42.686;23.244;2023-08-07T00:11:37;2.10;;;2.00;;
10731;SDS011;5417;42.686;23.244;2023-08-07T00:14:09;2.10;;;2.00;;
10731;SDS011;5417;42.686;23.244;2023-08-07T00:16:52;2.13;;;2.03;;
10731;SDS011;5417;42.686;23.244;2023-08-07T00:19:34;1.73;;;1.63;;
10731;SDS011;5417;42.686;23.244;2023-08-07T00:22:09;1.83;;;1.77;;
10731;SDS011;5417;42.686;23.244;2023-08-07T00:27:34;1.83;;;1.83;;
10731;SDS011;5417;42.686;23.244;2023-08-07T00:30:41;1.67;;;1.67;;
10731;SDS011;5417;42.686;23.244;2023-08-07T00:33:07;1.50;;;1.50;;
10731;SDS011;5417;42.686;23.244;2023-08-07T00:35:37;1.70;;;1.60;;
10731;SDS011;5417;42.686;23.244;2023-08-07T00:38:08;1.90;;;1.80;;
10731;SDS011;5417;42.686;23.244;2023-08-07T00:40:56;1.93;;;1.90;;
10731;SDS011;5417;42.686;23.244;2023-08-07T00:43:26;2.20;;;1.90;;
10731;SDS011;5417;42.686;23.244;2023-08-07T00:46:17;2.10;;;2.00;;
10731;SDS011;5417;42.686;23.244;2023-08-07T00:48:56;2.00;;;1.90;;
10731;SDS011;5417;42.686;23.244;2023-08-07T00:51:25;2.07;;;1.97;;
10731;SDS011;5417;42.686;23.244;2023-08-07T00:54:14;1.83;;;1.83;;
10731;SDS011;5417;42.686;23.244;2023-08-07T00:59:38;2.30;;;2.20;;
10731;SDS011;5417;42.686;23.244;2023-08-07T01:02:07;2.20;;;2.10;;
10731;SDS011;5417;42.686;23.244;2023-08-07T01:04:58;2.13;;;2.03;;
10731;SDS011;5417;42.686;23.244;2023-08-07T01:09:07;2.10;;;2.00;;
10731;SDS011;5417;42.686;23.244;2023-08-07T01:10:38;2.30;;;2.20;;
10731;SDS011;5417;42.686;23.244;2023-08-07T01:13:18;2.07;;;1.97;;
10731;SDS011;5417;42.686;23.244;2023-08-07T01:15:52;2.43;;;2.33;;
10731;SDS011;5417;42.686;23.244;2023-08-07T01:18:22;2.30;;;2.10;;
10731;SDS011;5417;42.686;23.244;2023-08-07T01:21:04;2.57;;;2.47;;
10731;SDS011;5417;42.686;23.244;2023-08-07T01:26:35;3.00;;;2.80;;
10731;SDS011;5417;42.686;23.244;2023-08-07T01:29:22;2.73;;;2.63;;
10731;SDS011;5417;42.686;23.244;2023-08-07T01:32:20;2.43;;;2.33;;
10731;SDS011;5417;42.686;23.244;2023-08-07T01:34:55;2.60;;;2.50;;
10731;SDS011;5417;42.686;23.244;2023-08-07T01:37:29;2.50;;;2.40;;
10731;SDS011;5417;42.686;23.244;2023-08-07T01:40:04;2.33;;;2.23;;
10731;SDS011;5417;42.686;23.244;2023-08-07T01:42:37;2.77;;;2.43;;
10731;SDS011;5417;42.686;23.244;2023-08-07T01:45:04;2.47;;;2.37;;
10731;SDS011;5417;42.686;23.244;2023-08-07T01:47:55;2.43;;;2.13;;
10731;SDS011;5417;42.686;23.244;2023-08-07T01:53:16;2.70;;;2.50;;
10731;SDS011;5417;42.686;23.244;2023-08-07T01:59:18;2.20;;;2.10;;
10731;SDS011;5417;42.686;23.244;2023-08-07T02:01:45;2.83;;;2.30;;
10731;SDS011;5417;42.686;23.244;2023-08-07T02:04:19;2.70;;;2.53;;
10731;SDS011;5417;42.686;23.244;2023-08-07T02:06:45;2.93;;;2.73;;
10731;SDS011;5417;42.686;23.244;2023-08-07T02:09:17;2.33;;;2.23;;
10731;SDS011;5417;42.686;23.244;2023-08-07T02:11:49;2.60;;;2.40;;
10731;SDS011;5417;42.686;23.244;2023-08-07T02:14:17;2.63;;;2.53;;
10731;SDS011;5417;42.686;23.244;2023-08-07T02:16:49;2.70;;;2.60;;
10731;SDS011;5417;42.686;23.244;2023-08-07T02:19:33;2.50;;;2.40;;
10731;SDS011;5417;42.686;23.244;2023-08-07T02:22:00;2.60;;;2.50;;
10731;SDS011;5417;42.686;23.244;2023-08-07T02:24:36;2.60;;;2.50;;
10731;SDS011;5417;42.686;23.244;2023-08-07T02:27:45;2.60;;;2.50;;
10731;SDS011;5417;42.686;23.244;2023-08-07T02:30:20;2.10;;;2.00;;
10731;SDS011;5417;42.686;23.244;2023-08-07T02:32:47;2.57;;;2.37;;
10731;SDS011;5417;42.686;23.244;2023-08-07T02:35:14;2.27;;;2.17;;
10731;SDS011;5417;42.686;23.244;2023-08-07T02:37:43;2.27;;;2.17;;
10731;SDS011;5417;42.686;23.244;2023-08-07T02:40:51;2.23;;;2.13;;
10731;SDS011;5417;42.686;23.244;2023-08-07T02:43:33;2.50;;;2.40;;
10731;SDS011;5417;42.686;23.244;2023-08-07T02:46:22;2.57;;;2.47;;
10731;SDS011;5417;42.686;23.244;2023-08-07T02:48:57;2.50;;;2.40;;
10731;SDS011;5417;42.686;23.244;2023-08-07T02:51:24;2.70;;;2.60;;
10731;SDS011;5417;42.686;23.244;2023-08-07T02:53:50;2.40;;;2.30;;
10731;SDS011;5417;42.686;23.244;2023-08-07T02:56:17;2.97;;;2.77;;
10731;SDS011;5417;42.686;23.244;2023-08-07T02:59:06;2.53;;;2.43;;
10731;SDS011;5417;42.686;23.244;2023-08-07T03:01:38;2.50;;;2.40;;
10731;SDS011;5417;42.686;23.244;2023-08-07T03:04:06;3.13;;;2.93;;
10731;SDS011;5417;42.686;23.244;2023-08-07T03:06:39;2.77;;;2.67;;
10731;SDS011;5417;42.686;23.244;2023-08-07T03:09:06;3.20;;;3.00;;
10731;SDS011;5417;42.686;23.244;2023-08-07T03:14:41;3.37;;;3.07;;
10731;SDS011;5417;42.686;23.244;2023-08-07T03:20:20;3.27;;;3.17;;
10731;SDS011;5417;42.686;23.244;2023-08-07T03:22:52;3.47;;;3.20;;
10731;SDS011;5417;42.686;23.244;2023-08-07T03:25:25;3.57;;;3.37;;
10731;SDS011;5417;42.686;23.244;2023-08-07T03:29:02;4.17;;;3.60;;
10731;SDS011;5417;42.686;23.244;2023-08-07T03:34:07;3.27;;;3.17;;
10731;SDS011;5417;42.686;23.244;2023-08-07T03:36:34;5.03;;;3.60;;
10731;SDS011;5417;42.686;23.244;2023-08-07T03:39:34;3.30;;;3.10;;
10731;SDS011;5417;42.686;23.244;2023-08-07T03:41:51;3.63;;;3.37;;
10731;SDS011;5417;42.686;23.244;2023-08-07T03:44:36;3.30;;;3.10;;
10731;SDS011;5417;42.686;23.244;2023-08-07T03:47:06;3.80;;;3.50;;
10731;SDS011;5417;42.686;23.244;2023-08-07T03:49:34;3.20;;;3.10;;
10731;SDS011;5417;42.686;23.244;2023-08-07T03:52:08;3.03;;;2.93;;
10731;SDS011;5417;42.686;23.244;2023-08-07T03:55:21;3.30;;;3.10;;
10731;SDS011;5417;42.686;23.244;2023-08-07T03:57:44;3.20;;;3.10;;
10731;SDS011;5417;42.686;23.244;2023-08-07T04:00:29;3.10;;;3.00;;
10731;SDS011;5417;42.686;23.244;2023-08-07T04:03:11;3.40;;;3.20;;
10731;SDS011;5417;42.686;23.244;2023-08-07T04:08:31;3.43;;;3.17;;
10731;SDS011;5417;42.686;23.244;2023-08-07T04:11:02;3.17;;;2.97;;
10731;SDS011;5417;42.686;23.244;2023-08-07T04:13:55;3.27;;;3.03;;
10731;SDS011;5417;42.686;23.244;2023-08-07T04:16:22;3.53;;;3.33;;
10731;SDS011;5417;42.686;23.244;2023-08-07T04:18:50;3.33;;;3.03;;
10731;SDS011;5417;42.686;23.244;2023-08-07T04:21:19;2.90;;;2.80;;
10731;SDS011;5417;42.686;23.244;2023-08-07T04:23:46;3.00;;;2.87;;
10731;SDS011;5417;42.686;23.244;2023-08-07T04:26:12;3.13;;;2.93;;
10731;SDS011;5417;42.686;23.244;2023-08-07T04:28:43;3.27;;;3.07;;
10731;SDS011;5417;42.686;23.244;2023-08-07T04:31:10;4.00;;;3.80;;
10731;SDS011;5417;42.686;23.244;2023-08-07T04:33:37;3.40;;;3.17;;
10731;SDS011;5417;42.686;23.244;2023-08-07T04:36:04;3.20;;;3.07;;
10731;SDS011;5417;42.686;23.244;2023-08-07T04:38:33;3.30;;;3.00;;
10731;SDS011;5417;42.686;23.244;2023-08-07T04:41:00;3.40;;;3.20;;
10731;SDS011;5417;42.686;23.244;2023-08-07T04:43:28;2.80;;;2.70;;
10731;SDS011;5417;42.686;23.244;2023-08-07T04:45:55;2.90;;;2.70;;
10731;SDS011;5417;42.686;23.244;2023-08-07T04:48:22;2.70;;;2.50;;
10731;SDS011;5417;42.686;23.244;2023-08-07T04:50:50;2.40;;;2.30;;
10731;SDS011;5417;42.686;23.244;2023-08-07T04:53:17;2.53;;;2.37;;
10731;SDS011;5417;42.686;23.244;2023-08-07T04:55:46;3.47;;;3.17;;
10731;SDS011;5417;42.686;23.244;2023-08-07T04:58:13;2.30;;;2.20;;
10731;SDS011;5417;42.686;23.244;2023-08-07T05:00:39;3.03;;;2.17;;
10731;SDS011;5417;42.686;23.244;2023-08-07T05:03:07;2.35;;;2.25;;
10731;SDS011;5417;42.686;23.244;2023-08-07T05:05:33;2.20;;;2.10;;
10731;SDS011;5417;42.686;23.244;2023-08-07T05:08:00;2.45;;;2.25;;
10731;SDS011;5417;42.686;23.244;2023-08-07T05:10:27;2.20;;;2.10;;
10731;SDS011;5417;42.686;23.244;2023-08-07T05:12:56;2.30;;;2.20;;
10731;SDS011;5417;42.686;23.244;2023-08-07T05:15:23;2.70;;;2.13;;
10731;SDS011;5417;42.686;23.244;2023-08-07T05:17:51;2.17;;;2.08;;
10731;SDS011;5417;42.686;23.244;2023-08-07T05:20:18;2.25;;;2.05;;
10731;SDS011;5417;42.686;23.244;2023-08-07T05:22:45;2.35;;;2.25;;
10731;SDS011;5417;42.686;23.244;2023-08-07T05:25:13;2.08;;;2.00;;
10731;SDS011;5417;42.686;23.244;2023-08-07T05:27:41;2.65;;;2.45;;
10731;SDS011;5417;42.686;23.244;2023-08-07T05:30:10;2.58;;;2.42;;
10731;SDS011;5417;42.686;23.244;2023-08-07T05:32:38;2.80;;;2.60;;
10731;SDS011;5417;42.686;23.244;2023-08-07T05:35:06;2.30;;;2.20;;
10731;SDS011;5417;42.686;23.244;2023-08-07T05:37:34;2.70;;;2.50;;
10731;SDS011;5417;42.686;23.244;2023-08-07T05:40:01;2.65;;;2.45;;
10731;SDS011;5417;42.686;23.244;2023-08-07T05:42:31;2.38;;;2.28;;
10731;SDS011;5417;42.686;23.244;2023-08-07T05:44:59;2.90;;;2.70;;
10731;SDS011;5417;42.686;23.244;2023-08-07T05:47:29;2.70;;;2.50;;
10731;SDS011;5417;42.686;23.244;2023-08-07T05:49:56;2.90;;;2.70;;
10731;SDS011;5417;42.686;23.244;2023-08-07T05:52:22;2.83;;;2.63;;
10731;SDS011;5417;42.686;23.244;2023-08-07T05:54:50;3.00;;;2.90;;
10731;SDS011;5417;42.686;23.244;2023-08-07T05:57:19;2.80;;;2.60;;
10731;SDS011;5417;42.686;23.244;2023-08-07T05:59:46;3.07;;;2.87;;
10731;SDS011;5417;42.686;23.244;2023-08-07T06:02:13;2.20;;;2.10;;
10731;SDS011;5417;42.686;23.244;2023-08-07T06:04:44;2.60;;;2.50;;
10731;SDS011;5417;42.686;23.244;2023-08-07T06:07:14;2.90;;;2.80;;
10731;SDS011;5417;42.686;23.244;2023-08-07T06:09:57;2.40;;;2.20;;
10731;SDS011;5417;42.686;23.244;2023-08-07T06:12:27;3.00;;;2.80;;
10731;SDS011;5417;42.686;23.244;2023-08-07T06:14:54;2.83;;;2.60;;
10731;SDS011;5417;42.686;23.244;2023-08-07T06:17:21;2.70;;;2.60;;
10731;SDS011;5417;42.686;23.244;2023-08-07T06:19:52;2.77;;;2.57;;
10731;SDS011;5417;42.686;23.244;2023-08-07T06:22:22;2.40;;;2.30;;
10731;SDS011;5417;42.686;23.244;2023-08-07T06:24:51;2.60;;;2.50;;
10731;SDS011;5417;42.686;23.244;2023-08-07T06:27:20;2.40;;;2.30;;
10731;SDS011;5417;42.686;23.244;2023-08-07T06:29:52;2.70;;;2.50;;
10731;SDS011;5417;42.686;23.244;2023-08-07T06:32:19;2.23;;;2.13;;
10731;SDS011;5417;42.686;23.244;2023-08-07T06:34:46;2.13;;;2.03;;
10731;SDS011;5417;42.686;23.244;2023-08-07T06:37:17;2.07;;;1.97;;
10731;SDS011;5417;42.686;23.244;2023-08-07T06:39:45;2.47;;;2.27;;
10731;SDS011;5417;42.686;23.244;2023-08-07T06:42:14;1.50;;;1.50;;
10731;SDS011;5417;42.686;23.244;2023-08-07T06:44:41;1.50;;;1.50;;
10731;SDS011;5417;42.686;23.244;2023-08-07T06:47:11;1.60;;;1.50;;
10731;SDS011;5417;42.686;23.244;2023-08-07T06:49:38;1.90;;;1.37;;
10731;SDS011;5417;42.686;23.244;2023-08-07T06:52:05;1.70;;;1.60;;
10731;SDS011;5417;42.686;23.244;2023-08-07T06:54:35;1.57;;;1.57;;
10731;SDS011;5417;42.686;23.244;2023-08-07T06:57:02;4.87;;;2.20;;
10731;SDS011;5417;42.686;23.244;2023-08-07T06:59:32;1.80;;;1.70;;
10731;SDS011;5417;42.686;23.244;2023-08-07T07:02:01;1.63;;;1.40;;
10731;SDS011;5417;42.686;23.244;2023-08-07T07:04:28;1.30;;;1.30;;
10731;SDS011;5417;42.686;23.244;2023-08-07T07:06:55;1.63;;;1.53;;
10731;SDS011;5417;42.686;23.244;2023-08-07T07:09:24;1.60;;;1.60;;
10731;SDS011;5417;42.686;23.244;2023-08-07T07:11:55;1.90;;;1.33;;
10731;SDS011;5417;42.686;23.244;2023-08-07T07:14:24;1.57;;;1.57;;
10731;SDS011;5417;42.686;23.244;2023-08-07T07:16:51;1.40;;;1.40;;
10731;SDS011;5417;42.686;23.244;2023-08-07T07:19:18;2.50;;;1.53;;
10731;SDS011;5417;42.686;23.244;2023-08-07T07:21:45;1.47;;;1.33;;
10731;SDS011;5417;42.686;23.244;2023-08-07T07:24:15;1.80;;;1.60;;
10731;SDS011;5417;42.686;23.244;2023-08-07T07:26:42;1.30;;;1.20;;
10731;SDS011;5417;42.686;23.244;2023-08-07T07:29:13;2.53;;;2.33;;
10731;SDS011;5417;42.686;23.244;2023-08-07T07:31:43;3.53;;;2.23;;
10731;SDS011;5417;42.686;23.244;2023-08-07T07:34:10;1.53;;;1.43;;
10731;SDS011;5417;42.686;23.244;2023-08-07T07:36:37;4.93;;;1.60;;
10731;SDS011;5417;42.686;23.244;2023-08-07T07:39:08;1.50;;;1.30;;
10731;SDS011;5417;42.686;23.244;2023-08-07T07:41:38;1.10;;;1.10;;
10731;SDS011;5417;42.686;23.244;2023-08-07T07:44:05;1.30;;;1.30;;
10731;SDS011;5417;42.686;23.244;2023-08-07T07:46:36;1.23;;;1.17;;
10731;SDS011;5417;42.686;23.244;2023-08-07T07:49:03;1.20;;;1.20;;
10731;SDS011;5417;42.686;23.244;2023-08-07T07:51:32;1.20;;;1.20;;
10731;SDS011;5417;42.686;23.244;2023-08-07T07:54:00;1.60;;;1.50;;
10731;SDS011;5417;42.686;23.244;2023-08-07T07:56:30;1.63;;;1.47;;
10731;SDS011;5417;42.686;23.244;2023-08-07T07:58:58;1.57;;;1.50;;
10731;SDS011;5417;42.686;23.244;2023-08-07T08:01:26;3.17;;;2.20;;
10731;SDS011;5417;42.686;23.244;2023-08-07T08:03:55;1.53;;;1.40;;
10731;SDS011;5417;42.686;23.244;2023-08-07T08:06:24;1.43;;;1.43;;
10731;SDS011;5417;42.686;23.244;2023-08-07T08:08:56;1.63;;;1.53;;
10731;SDS011;5417;42.686;23.244;2023-08-07T08:11:26;1.50;;;1.50;;
10731;SDS011;5417;42.686;23.244;2023-08-07T08:13:53;1.43;;;1.33;;
10731;SDS011;5417;42.686;23.244;2023-08-07T08:16:23;1.40;;;1.33;;
10731;SDS011;5417;42.686;23.244;2023-08-07T08:19:08;1.20;;;1.20;;
10731;SDS011;5417;42.686;23.244;2023-08-07T08:21:35;1.40;;;1.40;;
10731;SDS011;5417;42.686;23.244;2023-08-07T08:24:03;1.50;;;1.40;;
10731;SDS011;5417;42.686;23.244;2023-08-07T08:26:32;1.73;;;1.63;;
10731;SDS011;5417;42.686;23.244;2023-08-07T08:28:59;1.40;;;1.40;;
10731;SDS011;5417;42.686;23.244;2023-08-07T08:31:26;1.43;;;1.43;;
10731;SDS011;5417;42.686;23.244;2023-08-07T08:33:53;2.30;;;1.60;;
10731;SDS011;5417;42.686;23.244;2023-08-07T08:36:24;2.73;;;2.40;;
10731;SDS011;5417;42.686;23.244;2023-08-07T08:38:53;1.47;;;1.37;;
10731;SDS011;5417;42.686;23.244;2023-08-07T08:41:20;1.50;;;1.50;;
10731;SDS011;5417;42.686;23.244;2023-08-07T08:43:47;1.63;;;1.50;;
10731;SDS011;5417;42.686;23.244;2023-08-07T08:46:23;1.20;;;1.20;;
10731;SDS011;5417;42.686;23.244;2023-08-07T08:48:56;3.60;;;1.50;;
10731;SDS011;5417;42.686;23.244;2023-08-07T08:51:28;1.50;;;1.50;;
10731;SDS011;5417;42.686;23.244;2023-08-07T08:53:58;1.80;;;1.40;;
10731;SDS011;5417;42.686;23.244;2023-08-07T08:56:28;1.73;;;1.63;;
10731;SDS011;5417;42.686;23.244;2023-08-07T08:59:00;1.57;;;1.57;;
10731;SDS011;5417;42.686;23.244;2023-08-07T09:01:33;2.30;;;1.60;;
10731;SDS011;5417;42.686;23.244;2023-08-07T09:04:02;2.00;;;1.43;;
10731;SDS011;5417;42.686;23.244;2023-08-07T09:06:33;1.87;;;1.80;;
10731;SDS011;5417;42.686;23.244;2023-08-07T09:09:04;1.80;;;1.70;;
10731;SDS011;5417;42.686;23.244;2023-08-07T09:11:35;1.60;;;1.60;;
10731;SDS011;5417;42.686;23.244;2023-08-07T09:14:07;1.80;;;1.57;;
10731;SDS011;5417;42.686;23.244;2023-08-07T09:16:38;1.63;;;1.63;;
10731;SDS011;5417;42.686;23.244;2023-08-07T09:19:09;1.50;;;1.50;;
10731;SDS011;5417;42.686;23.244;2023-08-07T09:21:43;1.70;;;1.60;;
10731;SDS011;5417;42.686;23.244;2023-08-07T09:24:10;1.40;;;1.30;;
10731;SDS011;5417;42.686;23.244;2023-08-07T09:26:37;1.50;;;1.50;;
10731;SDS011;5417;42.686;23.244;2023-08-07T09:29:09;1.33;;;1.33;;
10731;SDS011;5417;42.686;23.244;2023-08-07T09:31:37;1.57;;;1.53;;
10731;SDS011;5417;42.686;23.244;2023-08-07T09:34:25;1.70;;;1.63;;
10731;SDS011;5417;42.686;23.244;2023-08-07T09:36:57;1.83;;;1.50;;
10731;SDS011;5417;42.686;23.244;2023-08-07T09:39:29;1.63;;;1.50;;
10731;SDS011;5417;42.686;23.244;2023-08-07T09:41:56;4.10;;;1.57;;
10731;SDS011;5417;42.686;23.244;2023-08-07T09:44:23;1.70;;;1.60;;
10731;SDS011;5417;42.686;23.244;2023-08-07T09:46:50;1.73;;;1.63;;
10731;SDS011;5417;42.686;23.244;2023-08-07T09:49:18;1.80;;;1.70;;
10731;SDS011;5417;42.686;23.244;2023-08-07T09:51:45;1.30;;;1.30;;
10731;SDS011;5417;42.686;23.244;2023-08-07T09:54:16;1.40;;;1.40;;
10731;SDS011;5417;42.686;23.244;2023-08-07T09:56:43;1.63;;;1.53;;
10731;SDS011;5417;42.686;23.244;2023-08-07T09:59:13;1.60;;;1.50;;
10731;SDS011;5417;42.686;23.244;2023-08-07T10:01:40;1.60;;;1.60;;
10731;SDS011;5417;42.686;23.244;2023-08-07T10:04:09;2.67;;;1.63;;
10731;SDS011;5417;42.686;23.244;2023-08-07T10:06:40;1.73;;;1.50;;
10731;SDS011;5417;42.686;23.244;2023-08-07T10:09:08;1.37;;;1.37;;
10731;SDS011;5417;42.686;23.244;2023-08-07T10:11:37;1.53;;;1.40;;
10731;SDS011;5417;42.686;23.244;2023-08-07T10:14:05;1.40;;;1.40;;
10731;SDS011;5417;42.686;23.244;2023-08-07T10:16:32;1.73;;;1.63;;
10731;SDS011;5417;42.686;23.244;2023-08-07T10:19:04;1.80;;;1.70;;
10731;SDS011;5417;42.686;23.244;2023-08-07T10:21:31;2.13;;;1.63;;
10731;SDS011;5417;42.686;23.244;2023-08-07T10:24:02;1.43;;;1.43;;
10731;SDS011;5417;42.686;23.244;2023-08-07T10:26:31;1.50;;;1.50;;
10731;SDS011;5417;42.686;23.244;2023-08-07T10:29:01;1.50;;;1.50;;
10731;SDS011;5417;42.686;23.244;2023-08-07T10:31:30;1.87;;;1.60;;
10731;SDS011;5417;42.686;23.244;2023-08-07T10:34:00;1.60;;;1.60;;
10731;SDS011;5417;42.686;23.244;2023-08-07T10:36:32;1.40;;;1.40;;
10731;SDS011;5417;42.686;23.244;2023-08-07T10:39:05;1.70;;;1.70;;
10731;SDS011;5417;42.686;23.244;2023-08-07T10:41:37;1.50;;;1.50;;
10731;SDS011;5417;42.686;23.244;2023-08-07T10:44:13;1.60;;;1.60;;
10731;SDS011;5417;42.686;23.244;2023-08-07T10:46:47;1.40;;;1.40;;
10731;SDS011;5417;42.686;23.244;2023-08-07T10:49:31;1.57;;;1.57;;
10731;SDS011;5417;42.686;23.244;2023-08-07T10:52:01;1.47;;;1.47;;
10731;SDS011;5417;42.686;23.244;2023-08-07T10:54:29;1.92;;;1.88;;
10731;SDS011;5417;42.686;23.244;2023-08-07T10:56:56;1.77;;;1.67;;
10731;SDS011;5417;42.686;23.244;2023-08-07T10:59:28;1.60;;;1.60;;
10731;SDS011;5417;42.686;23.244;2023-08-07T11:01:56;1.90;;;1.80;;
10731;SDS011;5417;42.686;23.244;2023-08-07T11:04:23;1.70;;;1.70;;
10731;SDS011;5417;42.686;23.244;2023-08-07T11:06:51;3.07;;;1.67;;
10731;SDS011;5417;42.686;23.244;2023-08-07T11:09:18;2.00;;;1.90;;
10731;SDS011;5417;42.686;23.244;2023-08-07T11:11:47;1.80;;;1.70;;
10731;SDS011;5417;42.686;23.244;2023-08-07T11:14:15;2.07;;;1.97;;
10731;SDS011;5417;42.686;23.244;2023-08-07T11:16:45;2.23;;;1.80;;
10731;SDS011;5417;42.686;23.244;2023-08-07T11:19:13;1.83;;;1.73;;
10731;SDS011;5417;42.686;23.244;2023-08-07T11:21:41;1.70;;;1.70;;
10731;SDS011;5417;42.686;23.244;2023-08-07T11:24:11;2.03;;;1.70;;
10731;SDS011;5417;42.686;23.244;2023-08-07T11:26:38;2.27;;;1.70;;
10731;SDS011;5417;42.686;23.244;2023-08-07T11:29:06;1.90;;;1.80;;
10731;SDS011;5417;42.686;23.244;2023-08-07T11:31:34;1.70;;;1.60;;
10731;SDS011;5417;42.686;23.244;2023-08-07T11:34:03;1.83;;;1.70;;
10731;SDS011;5417;42.686;23.244;2023-08-07T11:36:30;2.40;;;1.70;;
10731;SDS011;5417;42.686;23.244;2023-08-07T11:38:58;2.33;;;1.70;;
10731;SDS011;5417;42.686;23.244;2023-08-07T11:41:26;1.90;;;1.80;;
10731;SDS011;5417;42.686;23.244;2023-08-07T11:43:53;2.20;;;1.60;;
10731;SDS011;5417;42.686;23.244;2023-08-07T11:46:20;1.80;;;1.70;;
10731;SDS011;5417;42.686;23.244;2023-08-07T11:48:47;1.70;;;1.67;;
10731;SDS011;5417;42.686;23.244;2023-08-07T11:51:16;2.90;;;1.93;;
10731;SDS011;5417;42.686;23.244;2023-08-07T11:53:44;1.77;;;1.60;;
10731;SDS011;5417;42.686;23.244;2023-08-07T11:56:11;1.80;;;1.70;;
10731;SDS011;5417;42.686;23.244;2023-08-07T11:58:40;2.00;;;1.90;;
10731;SDS011;5417;42.686;23.244;2023-08-07T12:01:11;1.70;;;1.60;;
10731;SDS011;5417;42.686;23.244;2023-08-07T12:03:41;1.87;;;1.77;;
10731;SDS011;5417;42.686;23.244;2023-08-07T12:06:21;2.40;;;2.13;;
10731;SDS011;5417;42.686;23.244;2023-08-07T12:08:55;2.35;;;2.15;;
10731;SDS011;5417;42.686;23.244;2023-08-07T12:11:23;2.07;;;1.97;;
10731;SDS011;5417;42.686;23.244;2023-08-07T12:13:53;2.07;;;1.80;;
10731;SDS011;5417;42.686;23.244;2023-08-07T12:16:22;2.00;;;1.90;;
10731;SDS011;5417;42.686;23.244;2023-08-07T12:18:55;3.03;;;1.90;;
10731;SDS011;5417;42.686;23.244;2023-08-07T12:21:25;1.80;;;1.70;;
10731;SDS011;5417;42.686;23.244;2023-08-07T12:24:01;2.00;;;1.90;;
10731;SDS011;5417;42.686;23.244;2023-08-07T12:26:28;1.87;;;1.70;;
10731;SDS011;5417;42.686;23.244;2023-08-07T12:28:57;1.90;;;1.80;;
10731;SDS011;5417;42.686;23.244;2023-08-07T12:31:24;1.60;;;1.60;;
10731;SDS011;5417;42.686;23.244;2023-08-07T12:33:51;1.87;;;1.80;;
10731;SDS011;5417;42.686;23.244;2023-08-07T12:36:21;1.60;;;1.60;;
10731;SDS011;5417;42.686;23.244;2023-08-07T12:38:52;2.17;;;1.70;;
10731;SDS011;5417;42.686;23.244;2023-08-07T12:41:19;2.20;;;2.10;;
10731;SDS011;5417;42.686;23.244;2023-08-07T12:43:46;3.40;;;2.10;;
10731;SDS011;5417;42.686;23.244;2023-08-07T12:46:13;1.63;;;1.63;;
10731;SDS011;5417;42.686;23.244;2023-08-07T12:48:40;2.13;;;1.93;;
10731;SDS011;5417;42.686;23.244;2023-08-07T12:51:10;1.70;;;1.60;;
10731;SDS011;5417;42.686;23.244;2023-08-07T12:53:37;2.60;;;2.00;;
10731;SDS011;5417;42.686;23.244;2023-08-07T12:56:08;2.53;;;2.03;;
10731;SDS011;5417;42.686;23.244;2023-08-07T12:58:36;2.90;;;2.70;;
10731;SDS011;5417;42.686;23.244;2023-08-07T13:01:03;2.30;;;2.20;;
10731;SDS011;5417;42.686;23.244;2023-08-07T13:03:33;1.80;;;1.70;;
10731;SDS011;5417;42.686;23.244;2023-08-07T13:06:00;3.33;;;2.10;;
10731;SDS011;5417;42.686;23.244;2023-08-07T13:08:30;1.60;;;1.60;;
10731;SDS011;5417;42.686;23.244;2023-08-07T13:10:58;2.33;;;1.97;;
10731;SDS011;5417;42.686;23.244;2023-08-07T13:13:29;2.60;;;2.50;;
10731;SDS011;5417;42.686;23.244;2023-08-07T13:15:58;2.40;;;1.90;;
10731;SDS011;5417;42.686;23.244;2023-08-07T13:18:25;1.67;;;1.57;;
10731;SDS011;5417;42.686;23.244;2023-08-07T13:20:52;3.03;;;2.27;;
10731;SDS011;5417;42.686;23.244;2023-08-07T13:23:19;2.23;;;2.07;;
10731;SDS011;5417;42.686;23.244;2023-08-07T13:25:49;3.07;;;2.00;;
10731;SDS011;5417;42.686;23.244;2023-08-07T13:28:16;2.50;;;2.00;;
10731;SDS011;5417;42.686;23.244;2023-08-07T13:30:45;2.33;;;1.80;;
10731;SDS011;5417;42.686;23.244;2023-08-07T13:33:13;2.00;;;1.90;;
10731;SDS011;5417;42.686;23.244;2023-08-07T13:35:42;3.00;;;2.23;;
10731;SDS011;5417;42.686;23.244;2023-08-07T13:38:12;2.20;;;2.00;;
10731;SDS011;5417;42.686;23.244;2023-08-07T13:40:43;1.83;;;1.73;;
10731;SDS011;5417;42.686;23.244;2023-08-07T13:43:13;2.00;;;1.90;;
10731;SDS011;5417;42.686;23.244;2023-08-07T13:45:40;1.77;;;1.67;;
10731;SDS011;5417;42.686;23.244;2023-08-07T13:48:12;2.27;;;1.90;;
10731;SDS011;5417;42.686;23.244;2023-08-07T13:50:42;1.97;;;1.87;;
10731;SDS011;5417;42.686;23.244;2023-08-07T13:53:09;4.80;;;2.43;;
10731;SDS011;5417;42.686;23.244;2023-08-07T13:55:38;2.47;;;2.30;;
10731;SDS011;5417;42.686;23.244;2023-08-07T13:58:05;2.87;;;2.60;;
10731;SDS011;5417;42.686;23.244;2023-08-07T14:00:32;2.23;;;2.13;;
10731;SDS011;5417;42.686;23.244;2023-08-07T14:03:03;1.87;;;1.77;;
10731;SDS011;5417;42.686;23.244;2023-08-07T14:05:39;1.70;;;1.70;;
10731;SDS011;5417;42.686;23.244;2023-08-07T14:08:08;2.07;;;1.83;;
10731;SDS011;5417;42.686;23.244;2023-08-07T14:10:36;2.30;;;2.20;;
10731;SDS011;5417;42.686;23.244;2023-08-07T14:13:05;2.10;;;2.00;;
10731;SDS011;5417;42.686;23.244;2023-08-07T14:15:33;2.07;;;1.97;;
10731;SDS011;5417;42.686;23.244;2023-08-07T14:18:03;1.93;;;1.83;;
10731;SDS011;5417;42.686;23.244;2023-08-07T14:20:30;1.90;;;1.80;;
10731;SDS011;5417;42.686;23.244;2023-08-07T14:23:00;2.37;;;2.10;;
10731;SDS011;5417;42.686;23.244;2023-08-07T14:25:27;2.00;;;1.90;;
10731;SDS011;5417;42.686;23.244;2023-08-07T14:27:54;2.20;;;2.10;;
10731;SDS011;5417;42.686;23.244;2023-08-07T14:30:29;2.93;;;2.13;;
10731;SDS011;5417;42.686;23.244;2023-08-07T14:33:00;3.43;;;2.10;;
10731;SDS011;5417;42.686;23.244;2023-08-07T14:35:27;4.30;;;2.13;;
10731;SDS011;5417;42.686;23.244;2023-08-07T14:37:58;3.20;;;2.10;;
10731;SDS011;5417;42.686;23.244;2023-08-07T14:40:25;2.00;;;1.80;;
10731;SDS011;5417;42.686;23.244;2023-08-07T14:42:53;11.37;;;2.43;;
10731;SDS011;5417;42.686;23.244;2023-08-07T14:45:23;2.20;;;2.00;;
10731;SDS011;5417;42.686;23.244;2023-08-07T14:47:50;2.27;;;2.13;;
10731;SDS011;5417;42.686;23.244;2023-08-07T14:50:20;2.47;;;2.00;;
10731;SDS011;5417;42.686;23.244;2023-08-07T14:52:47;1.93;;;1.80;;
10731;SDS011;5417;42.686;23.244;2023-08-07T14:55:18;2.17;;;2.07;;
10731;SDS011;5417;42.686;23.244;2023-08-07T14:57:48;2.03;;;1.93;;
10731;SDS011;5417;42.686;23.244;2023-08-07T15:00:15;2.00;;;1.90;;
10731;SDS011;5417;42.686;23.244;2023-08-07T15:02:45;1.90;;;1.80;;
10731;SDS011;5417;42.686;23.244;2023-08-07T15:05:13;1.90;;;1.70;;
10731;SDS011;5417;42.686;23.244;2023-08-07T15:07:43;1.80;;;1.70;;
10731;SDS011;5417;42.686;23.244;2023-08-07T15:10:10;1.77;;;1.70;;
10731;SDS011;5417;42.686;23.244;2023-08-07T15:12:41;1.97;;;1.80;;
10731;SDS011;5417;42.686;23.244;2023-08-07T15:15:12;1.90;;;1.73;;
10731;SDS011;5417;42.686;23.244;2023-08-07T15:17:39;2.17;;;1.77;;
10731;SDS011;5417;42.686;23.244;2023-08-07T15:20:07;2.10;;;1.90;;
10731;SDS011;5417;42.686;23.244;2023-08-07T15:22:37;2.47;;;1.60;;
10731;SDS011;5417;42.686;23.244;2023-08-07T15:25:07;1.90;;;1.80;;
10731;SDS011;5417;42.686;23.244;2023-08-07T15:27:38;8.30;;;2.30;;
10731;SDS011;5417;42.686;23.244;2023-08-07T15:30:07;2.70;;;2.03;;
10731;SDS011;5417;42.686;23.244;2023-08-07T15:32:37;5.57;;;2.03;;
10731;SDS011;5417;42.686;23.244;2023-08-07T15:35:07;3.00;;;1.90;;
10731;SDS011;5417;42.686;23.244;2023-08-07T15:37:34;1.97;;;1.87;;